Hauptseite
METAR-TAF:

METAR-TAF

Flughäfen :

Flughafen Saragossa

Saragossa, Spanien

Breite: 41-40N, Länge: 001-01W, Höhe: 263 m

Beobachtung

Neuester Wetterbericht von vor 24 Minuten, um 16:00 UTC
Wind 23 kt aus Nordwest, variierte zwischen West und Nord
Temperatur 27°C
Luftfeuchtigkeit 42%
Luftdruck 1017 hPa
Sichtweite 10 km oder mehr
Leicht bewölkt in der Höhe von 5000 ft

METAR: LEZG 161600Z 31023KT 280V350 9999 FEW050 27/13 Q1017

Zeit: 18:24 (16:24 UTC)

Prognose

Neuester Wetterbericht von vor 5 Stunden und 24 Minuten, um 11:00 UTC
Gültige Prognose vom 16 um 12 UTC bis 17 um 12 UTC
Wind 20 kt aus West/Nordwest
Sichtweite 10 km oder mehr
Durchbrochene Bewölkung in der Höhe von 4000 ft
Zeitweise
vom 16 um 12 UTC bis 16 um 20 UTC
Wind 22 kt aus West/Nordwest, Böen bis zu 35 kt

TAF: LEZG 161100Z 1612/1712 30020KT 9999 BKN040 TX30/1614Z TN18/1706Z TEMPO 1612/1620 30022G35KT

Wetterbeobachtungen und Prognosen von mehr als 4000 Flughäfen (METAR und TAF Bericht).

Die verfügbaren Stationen werden durch gelbe und rote Markierungen auf der Karte dargestellt.

Führen Sie die Maus auf sie, um den Namen der Station zu sehen.

Darauf klicken, um die Beobachtung von Wetterbeobachtungen und Prognosen zu sehen.

Um die Karte zu ändern : klicken Sie auf den grünen Tasten mit einem schwarzen Kreuz Zum Vergrößern, auf den grünen Button mit einem Gedankenstrich zu verkleinern, oder auf die grünen Pfeile für benachbarte Karten.


METAR-TAF: